createdAt,value
2024-01-17T00:00:13.259Z,99378.33
2024-01-17T00:02:20.036Z,99380.59
2024-01-17T00:04:25.704Z,99372.63
2024-01-17T00:06:31.240Z,99363.89
2024-01-17T00:08:36.624Z,99359.64
2024-01-17T00:10:42.329Z,99354.58
2024-01-17T00:12:47.771Z,99351
2024-01-17T00:14:53.439Z,99347.88
2024-01-17T00:16:58.900Z,99338.84
2024-01-17T00:19:04.498Z,99339.69
2024-01-17T00:21:10.170Z,99336.3
2024-01-17T00:23:15.789Z,99334.83
2024-01-17T00:25:21.082Z,99333.36
2024-01-17T00:27:26.495Z,99335.19
2024-01-17T00:29:31.968Z,99336.94
2024-01-17T00:31:37.318Z,99336.86
2024-01-17T00:33:42.950Z,99338.11
2024-01-17T00:35:48.736Z,99331.87
2024-01-17T00:37:54.180Z,99335.2
2024-01-17T00:39:59.916Z,99331.66
2024-01-17T00:42:05.873Z,99334.21
2024-01-17T00:44:11.498Z,99331.79
2024-01-17T00:46:17.030Z,99333.3
2024-01-17T00:48:22.596Z,99337.11
2024-01-17T00:50:28.348Z,99336.02
2024-01-17T00:52:33.831Z,99334.98
2024-01-17T00:54:39.323Z,99337.56
2024-01-17T00:56:45.077Z,99335.09
2024-01-17T00:58:50.631Z,99331.11
2024-01-17T01:00:56.150Z,99327.34
2024-01-17T01:03:01.883Z,99322.98
2024-01-17T01:05:07.229Z,99323.41
2024-01-17T01:07:12.675Z,99323.88
2024-01-17T01:09:18.233Z,99318.01
2024-01-17T01:11:23.971Z,99312.59
2024-01-17T01:13:29.522Z,99317.71
2024-01-17T01:15:34.853Z,99318.69
2024-01-17T01:17:40.642Z,99314.98
2024-01-17T01:19:46.129Z,99315.66
2024-01-17T01:21:51.677Z,99310.33
2024-01-17T01:23:57.076Z,99305.55
2024-01-17T01:26:02.460Z,99303.84
2024-01-17T01:28:07.987Z,99298.73
2024-01-17T01:30:13.687Z,99294.19
2024-01-17T01:32:19.138Z,99293.25
2024-01-17T01:34:24.653Z,99289.02
2024-01-17T01:36:30.267Z,99288.95
2024-01-17T01:38:35.904Z,99286.58
2024-01-17T01:40:41.556Z,99278.01
2024-01-17T01:42:47.118Z,99277.5
2024-01-17T01:44:52.511Z,99281.7
2024-01-17T01:46:57.886Z,99281.8
2024-01-17T01:49:04.098Z,99278.64
2024-01-17T01:51:09.995Z,99279.66
2024-01-17T01:53:15.328Z,99274.94
2024-01-17T01:55:20.616Z,99267.22
2024-01-17T01:57:26.016Z,99269.65
2024-01-17T01:59:31.774Z,99265.93
2024-01-17T02:01:37.218Z,99266.92
2024-01-17T02:03:42.653Z,99268.18
2024-01-17T02:05:48.415Z,99267.45
2024-01-17T02:07:53.912Z,99265.92
2024-01-17T02:09:59.362Z,99265.44
2024-01-17T02:12:05.130Z,99263.55
2024-01-17T02:14:10.840Z,99265.61
2024-01-17T02:16:16.290Z,99262.7
2024-01-17T02:18:21.946Z,99264.72
2024-01-17T02:20:27.644Z,99268.18
2024-01-17T02:22:33.114Z,99274.61
2024-01-17T02:24:38.669Z,99270.82
2024-01-17T02:26:44.332Z,99272.55
2024-01-17T02:28:49.849Z,99268.83
2024-01-17T02:30:55.463Z,99271.17
2024-01-17T02:33:01.359Z,99260.42
2024-01-17T02:35:07.101Z,99254.84
2024-01-17T02:37:12.639Z,99252.95
2024-01-17T02:39:18.276Z,99243.7
2024-01-17T02:41:23.762Z,99240.73
2024-01-17T02:43:29.461Z,99242.88
2024-01-17T02:45:34.961Z,99239.11
2024-01-17T02:47:40.427Z,99242.98
2024-01-17T02:49:45.973Z,99245.48
2024-01-17T02:51:51.541Z,99243.41
2024-01-17T02:53:57.229Z,99238.61
2024-01-17T02:56:02.909Z,99236.94
2024-01-17T02:58:08.366Z,99231.86
2024-01-17T03:00:13.840Z,99233.27
2024-01-17T03:02:19.335Z,99236.75
2024-01-17T03:04:24.654Z,99233.09
2024-01-17T03:06:29.873Z,99231.19
2024-01-17T03:08:35.471Z,99234.05
2024-01-17T03:10:40.895Z,99233.63
2024-01-17T03:12:46.397Z,99227.66
2024-01-17T03:14:51.752Z,99231.56
2024-01-17T03:16:57.245Z,99230.27
2024-01-17T03:19:03.017Z,99229.61
2024-01-17T03:21:08.714Z,99228.18
2024-01-17T03:23:14.262Z,99223.98
2024-01-17T03:25:19.648Z,99221.06
2024-01-17T03:27:25.034Z,99218.26
2024-01-17T03:29:30.551Z,99214.22
2024-01-17T03:31:36.027Z,99214.56
2024-01-17T03:33:41.816Z,99214.2
2024-01-17T03:35:47.729Z,99212.03
2024-01-17T03:37:53.162Z,99209.73
2024-01-17T03:39:58.644Z,99209.44
2024-01-17T03:42:04.314Z,99208.52
2024-01-17T03:44:10.002Z,99210.09
2024-01-17T03:46:15.441Z,99206.39
2024-01-17T03:48:21.274Z,99203.3
2024-01-17T03:50:26.767Z,99200.19
2024-01-17T03:52:32.182Z,99195.17
2024-01-17T03:54:37.725Z,99194.95
2024-01-17T03:56:43.212Z,99193
2024-01-17T03:58:48.804Z,99192.88
2024-01-17T04:00:54.316Z,99182.13
2024-01-17T04:02:59.981Z,99179.41
2024-01-17T04:05:05.747Z,99174.98
2024-01-17T04:08:06.569Z,99159.92
2024-01-17T04:10:11.917Z,99152.75
2024-01-17T04:12:17.317Z,99149.05
2024-01-17T04:14:22.703Z,99137.01
2024-01-17T04:16:27.968Z,99134.5
2024-01-17T04:18:33.637Z,99133.7
2024-01-17T04:20:39.255Z,99135.17
2024-01-17T04:22:44.612Z,99132.07
2024-01-17T04:24:50.012Z,99131.01
2024-01-17T04:26:55.561Z,99124.41
2024-01-17T04:29:01.049Z,99115.44
2024-01-17T04:31:06.611Z,99111.85
2024-01-17T04:33:12.652Z,99107.22
2024-01-17T04:35:18.200Z,99108.92
2024-01-17T04:37:23.848Z,99106.67
2024-01-17T04:39:29.292Z,99108.39
2024-01-17T04:41:34.836Z,99113.09
2024-01-17T04:43:40.130Z,99104.97
2024-01-17T04:45:45.402Z,99107.63
2024-01-17T04:47:51.217Z,99101.66
2024-01-17T04:49:57.241Z,99106.73
2024-01-17T04:52:02.941Z,99101.72
2024-01-17T04:54:08.580Z,99101.23
2024-01-17T04:56:14.838Z,99100.3
2024-01-17T04:58:20.283Z,99094.33
2024-01-17T05:00:25.607Z,99091.38
2024-01-17T05:02:30.993Z,99083.44
2024-01-17T05:04:36.320Z,99081.2
2024-01-17T05:06:41.886Z,99076.09
2024-01-17T05:08:47.859Z,99073.56
2024-01-17T05:10:53.658Z,99071.66
2024-01-17T05:12:58.941Z,99074.44
2024-01-17T05:15:04.671Z,99067.86
2024-01-17T05:17:10.501Z,99064.24
2024-01-17T05:19:19.452Z,99057.45
2024-01-17T05:21:25.216Z,99055.59
2024-01-17T05:23:30.868Z,99053.19
2024-01-17T05:25:36.340Z,99056.97
2024-01-17T05:27:41.776Z,99051.06
2024-01-17T05:29:47.227Z,99045.49
2024-01-17T05:31:52.871Z,99040.95
2024-01-17T05:33:58.517Z,99039.28
2024-01-17T05:36:04.283Z,99031.68
2024-01-17T05:38:09.901Z,99023.09
2024-01-17T05:40:15.300Z,99019.88
2024-01-17T05:42:20.873Z,99018.81
2024-01-17T05:44:26.182Z,99019.45
2024-01-17T05:46:31.654Z,99021.95
2024-01-17T05:48:37.469Z,99020.23
2024-01-17T05:50:43.211Z,99018.56
2024-01-17T05:52:48.594Z,99019.41
2024-01-17T05:54:54.050Z,99025.36
2024-01-17T05:56:59.556Z,99023.27
2024-01-17T05:59:04.886Z,99019.81
2024-01-17T06:01:10.162Z,99024.48
2024-01-17T06:03:15.744Z,99024.2
2024-01-17T06:05:21.539Z,99014.67
2024-01-17T06:07:27.058Z,99019.14
2024-01-17T06:09:32.376Z,99015.47
2024-01-17T06:11:37.736Z,99019.38
2024-01-17T06:13:43.091Z,99020.8
2024-01-17T06:15:48.700Z,99019.88
2024-01-17T06:17:54.241Z,99020.48
2024-01-17T06:19:59.629Z,99015.78
2024-01-17T06:22:05.190Z,99014.06
2024-01-17T06:24:10.982Z,99008.41
2024-01-17T06:26:16.346Z,99008.83
2024-01-17T06:28:21.673Z,99002.52
2024-01-17T06:30:27.310Z,99002.19
2024-01-17T06:32:33.273Z,98999.27
2024-01-17T06:34:40.084Z,98996.03
2024-01-17T06:36:45.744Z,98991.02
2024-01-17T06:38:51.043Z,98989.03
2024-01-17T06:40:56.589Z,98984.21
2024-01-17T06:43:02.038Z,98988.8
2024-01-17T06:45:07.362Z,98988.11
2024-01-17T06:47:12.793Z,98986.2
2024-01-17T06:49:18.274Z,98980.54
2024-01-17T06:51:23.676Z,98976.13
2024-01-17T06:53:29.148Z,98972.33
2024-01-17T06:55:34.630Z,98975.09
2024-01-17T06:57:40.011Z,98969.59
2024-01-17T06:59:45.773Z,98972.05
2024-01-17T07:01:51.171Z,98968.64
2024-01-17T07:03:56.661Z,98960.67
2024-01-17T07:06:02.262Z,98955.55
2024-01-17T07:08:07.938Z,98949.37
2024-01-17T07:10:13.294Z,98937.59
2024-01-17T07:12:19.028Z,98929.95
2024-01-17T07:14:24.553Z,98932.22
2024-01-17T07:16:29.934Z,98930.77
2024-01-17T07:18:35.768Z,98927.75
2024-01-17T07:20:41.572Z,98923.59
2024-01-17T07:22:47.008Z,98918.11
2024-01-17T07:24:52.747Z,98919.06
2024-01-17T07:26:58.108Z,98920.81
2024-01-17T07:29:03.903Z,98919.79
2024-01-17T07:31:09.224Z,98917.27
2024-01-17T07:33:14.787Z,98912.42
2024-01-17T07:35:20.371Z,98909.45
2024-01-17T07:37:25.927Z,98905.31
2024-01-17T07:39:31.567Z,98899.95
2024-01-17T07:41:37.027Z,98899.45
2024-01-17T07:43:42.584Z,98894.73
2024-01-17T07:45:48.133Z,98891.48
2024-01-17T07:47:53.754Z,98885.97
2024-01-17T07:49:59.730Z,98881.21
2024-01-17T07:52:10.208Z,98876.63
2024-01-17T07:54:15.548Z,98869.7
2024-01-17T07:56:21.041Z,98862.33
2024-01-17T07:58:26.285Z,98856.2
2024-01-17T08:00:31.587Z,98848.05
2024-01-17T08:02:37.051Z,98856.59
2024-01-17T08:04:42.523Z,98847.94
2024-01-17T08:06:48.039Z,98840.91
2024-01-17T08:08:53.508Z,98839.62
2024-01-17T08:10:59.060Z,98826.76
2024-01-17T08:13:04.342Z,98826.08
2024-01-17T08:15:10.019Z,98831.22
2024-01-17T08:17:15.579Z,98823.16
2024-01-17T08:19:21.737Z,98820.55
2024-01-17T08:21:27.856Z,98811.83
2024-01-17T08:23:33.278Z,98809
2024-01-17T08:25:38.719Z,98806.63
2024-01-17T08:27:44.255Z,98793.88
2024-01-17T08:29:49.920Z,98791.75
2024-01-17T08:31:55.337Z,98782.76
2024-01-17T08:34:01.241Z,98774.73
2024-01-17T08:36:07.098Z,98778.06
2024-01-17T08:38:12.707Z,98780.73
2024-01-17T08:40:18.353Z,98772.55
2024-01-17T08:42:23.672Z,98770.36
2024-01-17T08:44:29.022Z,98770.7
2024-01-17T08:46:34.410Z,98766.58
2024-01-17T08:48:40.172Z,98759.38
2024-01-17T08:50:45.739Z,98766.41
2024-01-17T08:52:51.090Z,98754.67
2024-01-17T08:54:56.465Z,98756.63
2024-01-17T08:57:01.772Z,98756.98
2024-01-17T08:59:07.290Z,98757.4
2024-01-17T09:01:12.868Z,98749.05
2024-01-17T09:03:18.487Z,98749.52
2024-01-17T09:05:24.052Z,98747.09
2024-01-17T09:07:33.641Z,98741.98
2024-01-17T09:09:39.820Z,98737.17
2024-01-17T09:11:45.532Z,98723.04
2024-01-17T09:13:51.166Z,98720.08
2024-01-17T09:15:56.496Z,98717.7
2024-01-17T09:18:02.016Z,98707.42
2024-01-17T09:20:07.900Z,98706.69
2024-01-17T09:22:13.342Z,98701.16
2024-01-17T09:24:18.642Z,98688.61
2024-01-17T09:26:24.089Z,98684.97
2024-01-17T09:28:29.502Z,98680.95
2024-01-17T09:30:34.810Z,98695.9
2024-01-17T09:32:40.810Z,98689.2
2024-01-17T09:34:46.653Z,98689.97
2024-01-17T09:36:52.486Z,98681.8
2024-01-17T09:38:58.093Z,98668.34
2024-01-17T09:41:03.534Z,98659.52
2024-01-17T09:43:15.086Z,98656.27
2024-01-17T09:45:23.620Z,98651.95
2024-01-17T09:47:29.368Z,98645.53
2024-01-17T09:49:35.084Z,98637.98
2024-01-17T09:51:40.565Z,98633.13
2024-01-17T09:53:45.820Z,98625.02
2024-01-17T09:55:51.278Z,98618.45
2024-01-17T09:57:56.724Z,98613.59
2024-01-17T10:00:02.478Z,98609.27
2024-01-17T10:02:08.060Z,98596.55
2024-01-17T10:04:13.332Z,98586.63
2024-01-17T10:06:19.510Z,98586.3
2024-01-17T10:08:25.198Z,98585.92
2024-01-17T10:10:30.587Z,98580.08
2024-01-17T10:12:36.169Z,98580.39
2024-01-17T10:14:41.563Z,98580.8
2024-01-17T10:16:47.069Z,98568.42
2024-01-17T10:18:52.640Z,98565.03
2024-01-17T10:20:58.204Z,98577.93
2024-01-17T10:23:03.594Z,98580.14
2024-01-17T10:25:09.025Z,98560.16
2024-01-17T10:27:14.348Z,98549.47
2024-01-17T10:29:20.046Z,98535.19
2024-01-17T10:31:25.611Z,98534.66
2024-01-17T10:33:31.556Z,98532.06
2024-01-17T10:35:37.757Z,98533.97
2024-01-17T10:37:43.460Z,98531.31
2024-01-17T10:39:48.891Z,98522.02
2024-01-17T10:41:54.672Z,98518.69
2024-01-17T10:44:00.328Z,98512.56
2024-01-17T10:46:05.722Z,98505.72
2024-01-17T10:48:11.640Z,98503.61
2024-01-17T10:50:17.211Z,98496.02
2024-01-17T10:52:27.958Z,98499.49
2024-01-17T10:54:33.948Z,98493.56
2024-01-17T10:56:39.362Z,98491.86
2024-01-17T10:58:44.913Z,98487.77
2024-01-17T11:00:50.518Z,98480.03
2024-01-17T11:02:56.083Z,98473.69
2024-01-17T11:05:01.746Z,98475.84
2024-01-17T11:07:07.304Z,98472.34
2024-01-17T11:09:13.194Z,98466.55
2024-01-17T11:11:18.776Z,98467.69
2024-01-17T11:13:24.121Z,98454.05
2024-01-17T11:15:29.777Z,98448.66
2024-01-17T11:17:38.259Z,98442.87
2024-01-17T11:19:44.039Z,98438.03
2024-01-17T11:21:49.781Z,98429.78
2024-01-17T11:23:55.465Z,98417.18
2024-01-17T11:26:01.533Z,98418.55
2024-01-17T11:28:06.806Z,98413.27
2024-01-17T11:30:12.334Z,98412.22
2024-01-17T11:32:17.719Z,98412.34
2024-01-17T11:34:23.601Z,98408.98
2024-01-17T11:36:29.536Z,98404.56
2024-01-17T11:38:35.487Z,98395.15
2024-01-17T11:40:41.097Z,98389.2
2024-01-17T11:42:46.633Z,98388.64
2024-01-17T11:45:12.900Z,98385.41
2024-01-17T11:47:19.940Z,98374.27
2024-01-17T11:49:25.826Z,98372.16
2024-01-17T11:51:31.445Z,98371.25
2024-01-17T11:53:36.950Z,98361.92
2024-01-17T11:55:43.466Z,98356.48
2024-01-17T11:57:48.870Z,98349.86
2024-01-17T11:59:54.196Z,98340.19
2024-01-17T12:01:59.544Z,98338.69
2024-01-17T12:04:05.018Z,98332.19
2024-01-17T12:06:10.906Z,98313.7
2024-01-17T12:08:17.036Z,98312.77
2024-01-17T12:10:22.755Z,98301.28
2024-01-17T12:12:28.223Z,98296.48
2024-01-17T12:14:33.726Z,98289.88
2024-01-17T12:16:39.266Z,98289.13
2024-01-17T12:18:45.017Z,98286.88
2024-01-17T12:20:50.701Z,98284.84
2024-01-17T12:22:56.060Z,98278.83
2024-01-17T12:25:01.417Z,98277.24
2024-01-17T12:27:07.017Z,98275.71
2024-01-17T12:29:12.735Z,98273.44
2024-01-17T12:31:18.380Z,98271.56
2024-01-17T12:33:27.580Z,98263.23
2024-01-17T12:35:33.420Z,98256.16
2024-01-17T12:37:38.994Z,98250.77
2024-01-17T12:39:44.533Z,98250.04
2024-01-17T12:41:49.977Z,98252.19
2024-01-17T12:43:55.407Z,98242.33
2024-01-17T12:46:00.844Z,98250.88
2024-01-17T12:48:06.659Z,98232.52
2024-01-17T12:50:12.259Z,98226.78
2024-01-17T12:52:17.839Z,98225.48
2024-01-17T12:54:24.196Z,98225.88
2024-01-17T12:56:29.697Z,98221.56
2024-01-17T12:58:34.894Z,98219.02
2024-01-17T13:00:40.521Z,98214.88
2024-01-17T13:02:46.390Z,98207.2
2024-01-17T13:04:51.734Z,98202.55
2024-01-17T13:06:57.187Z,98204.63
2024-01-17T13:09:02.876Z,98200.97
2024-01-17T13:11:08.232Z,98199.91
2024-01-17T13:13:13.563Z,98195.03
2024-01-17T13:15:19.209Z,98191.34
2024-01-17T13:17:24.656Z,98203.06
2024-01-17T13:19:30.195Z,98194.34
2024-01-17T13:21:35.871Z,98177.39
2024-01-17T13:23:41.453Z,98167.25
2024-01-17T13:25:47.026Z,98158.73
2024-01-17T13:27:52.518Z,98155.8
2024-01-17T13:29:57.993Z,98152.6
2024-01-17T13:32:03.489Z,98149.41
2024-01-17T13:34:09.378Z,98149.45
2024-01-17T13:36:15.281Z,98144.98
2024-01-17T13:38:20.822Z,98155.84
2024-01-17T13:40:26.170Z,98152.2
2024-01-17T13:42:31.724Z,98141.23
2024-01-17T13:44:37.076Z,98122.2
2024-01-17T13:46:42.463Z,98114.45
2024-01-17T13:48:49.309Z,98112.12
2024-01-17T13:50:56.042Z,98098.66
2024-01-17T13:53:01.687Z,98093.78
2024-01-17T13:55:07.066Z,98085.43
2024-01-17T13:57:12.456Z,98089.77
2024-01-17T13:59:17.812Z,98081.88
2024-01-17T14:01:23.255Z,98079.73
2024-01-17T14:03:33.952Z,98073.3
2024-01-17T14:05:39.828Z,98077.9
2024-01-17T14:07:45.222Z,98069.58
2024-01-17T14:09:50.757Z,98071.19
2024-01-17T14:11:57.403Z,98055.41
2024-01-17T14:14:02.963Z,98052.43
2024-01-17T14:16:08.493Z,98040.33
2024-01-17T14:18:13.848Z,98036
2024-01-17T14:20:19.954Z,98032.69
2024-01-17T14:22:25.347Z,98025.89
2024-01-17T14:24:30.835Z,98022.17
2024-01-17T14:26:36.630Z,98013.64
2024-01-17T14:28:46.292Z,98008.55
2024-01-17T14:30:51.798Z,98005.41
2024-01-17T14:32:57.605Z,98006.11
2024-01-17T14:35:05.772Z,98002.03
2024-01-17T14:37:11.399Z,98000.45
2024-01-17T14:39:16.981Z,97992.29
2024-01-17T14:41:22.431Z,97984.64
2024-01-17T14:43:30.167Z,97978.95
2024-01-17T14:45:37.765Z,97979.81
2024-01-17T14:47:43.259Z,97979.16
2024-01-17T14:49:49.030Z,97975
2024-01-17T14:51:54.790Z,97972.98
2024-01-17T14:54:00.375Z,97970.27
2024-01-17T14:56:05.948Z,97969.11
2024-01-17T14:58:11.329Z,97962.88
2024-01-17T15:00:16.894Z,97959.31
2024-01-17T15:02:22.618Z,97957.73
2024-01-17T15:04:28.044Z,97953.27
2024-01-17T15:06:33.538Z,97951.16
2024-01-17T15:08:39.304Z,97952.85
2024-01-17T15:10:44.671Z,97950.25
2024-01-17T15:12:49.933Z,97946.56
2024-01-17T15:14:55.936Z,97949.56
2024-01-17T15:17:02.083Z,97947.06
2024-01-17T15:19:12.078Z,97948.22
2024-01-17T15:21:17.650Z,97946.76
2024-01-17T15:23:23.123Z,97942.05
2024-01-17T15:25:28.383Z,97950.95
2024-01-17T15:27:33.624Z,97945.76
2024-01-17T15:29:39.344Z,97940.2
2024-01-17T15:31:44.906Z,97940.56
2024-01-17T15:33:50.616Z,97938.2
2024-01-17T15:35:56.324Z,97939.11
2024-01-17T15:38:01.850Z,97936.91
2024-01-17T15:40:07.400Z,97932.94
2024-01-17T15:42:13.020Z,97926.43
2024-01-17T15:44:18.355Z,97919.3
2024-01-17T15:46:23.823Z,97918.78
2024-01-17T15:48:29.476Z,97909
2024-01-17T15:50:39.050Z,97905.03
2024-01-17T15:52:44.850Z,97897.38
2024-01-17T15:54:50.244Z,97894.53
2024-01-17T15:56:55.775Z,97893.11
2024-01-17T15:59:01.316Z,97885.03
2024-01-17T16:01:06.856Z,97877.43
2024-01-17T16:03:12.339Z,97877.31
2024-01-17T16:05:17.939Z,97876.52
2024-01-17T16:07:23.936Z,97871.91
2024-01-17T16:09:29.549Z,97870.55
2024-01-17T16:11:35.064Z,97868.67
2024-01-17T16:13:40.480Z,97865.21
2024-01-17T16:15:46.117Z,97866.42
2024-01-17T16:17:51.689Z,97860.92
2024-01-17T16:19:57.331Z,97856.05
2024-01-17T16:22:02.966Z,97852.64
2024-01-17T16:24:08.522Z,97851.41
2024-01-17T16:26:13.982Z,97849.24
2024-01-17T16:28:19.469Z,97845.22
2024-01-17T16:30:24.900Z,97849.08
2024-01-17T16:32:30.585Z,97848
2024-01-17T16:34:36.286Z,97843.46
2024-01-17T16:36:41.868Z,97838.25
2024-01-17T16:38:47.835Z,97837.29
2024-01-17T16:40:53.356Z,97831.18
2024-01-17T16:42:58.788Z,97823.22
2024-01-17T16:45:04.270Z,97810.64
2024-01-17T16:47:09.870Z,97808.49
2024-01-17T16:49:15.703Z,97811.05
2024-01-17T16:51:21.488Z,97801.31
2024-01-17T16:53:26.968Z,97798.88
2024-01-17T16:55:32.400Z,97792.31
2024-01-17T16:57:38.046Z,97788.89
2024-01-17T16:59:43.429Z,97783.41
2024-01-17T17:01:48.890Z,97779.83
2024-01-17T17:03:54.670Z,97771.52
2024-01-17T17:06:00.497Z,97775.18
2024-01-17T17:08:06.121Z,97767.48
2024-01-17T17:10:11.603Z,97763.23
2024-01-17T17:12:17.031Z,97760.75
2024-01-17T17:14:22.540Z,97752.68
2024-01-17T17:16:27.970Z,97750.3
2024-01-17T17:18:33.612Z,97742.31
2024-01-17T17:20:39.465Z,97741.46
2024-01-17T17:22:44.904Z,97736.3
2024-01-17T17:24:50.285Z,97727.3
2024-01-17T17:26:56.020Z,97727.47
2024-01-17T17:29:01.434Z,97744.3
2024-01-17T17:31:06.874Z,97732.98
2024-01-17T17:33:12.359Z,97710.7
2024-01-17T17:35:18.040Z,97709.52
2024-01-17T17:37:23.484Z,97707.06
2024-01-17T17:39:28.931Z,97706.69
2024-01-17T17:41:34.363Z,97710.01
2024-01-17T17:43:39.707Z,97713.13
2024-01-17T17:45:45.138Z,97709.55
2024-01-17T17:47:50.923Z,97705.08
2024-01-17T17:49:56.702Z,97695.65
2024-01-17T17:52:01.981Z,97695.59
2024-01-17T17:54:07.360Z,97691.78
2024-01-17T17:56:12.646Z,97685.66
2024-01-17T17:58:17.902Z,97677.48
2024-01-17T18:00:23.427Z,97682.25
2024-01-17T18:02:28.974Z,97679.81
2024-01-17T18:04:34.399Z,97674.29
2024-01-17T18:06:40.058Z,97669.64
2024-01-17T18:08:48.338Z,97666.75
2024-01-17T18:10:53.815Z,97661.76
2024-01-17T18:12:59.255Z,97652.69
2024-01-17T18:15:04.836Z,97651.72
2024-01-17T18:17:10.456Z,97655.32
2024-01-17T18:19:16.034Z,97646.73
2024-01-17T18:21:21.681Z,97638
2024-01-17T18:23:27.077Z,97632.38
2024-01-17T18:25:36.585Z,97626.65
2024-01-17T18:27:42.523Z,97626.65
2024-01-17T18:29:48.119Z,97615.88
2024-01-17T18:31:53.653Z,97613.06
2024-01-17T18:33:59.054Z,97604.55
2024-01-17T18:36:04.423Z,97602.05
2024-01-17T18:38:09.868Z,97590.66
2024-01-17T18:40:15.566Z,97591.16
2024-01-17T18:42:21.293Z,97584.7
2024-01-17T18:44:26.907Z,97578.34
2024-01-17T18:46:32.301Z,97576.93
2024-01-17T18:48:38.405Z,97573.59
2024-01-17T18:50:43.869Z,97577.22
2024-01-17T18:52:49.177Z,97569.45
2024-01-17T18:54:54.546Z,97553.14
2024-01-17T18:57:00.128Z,97548.2
2024-01-17T18:59:05.766Z,97542.25
2024-01-17T19:01:11.290Z,97542.65
2024-01-17T19:03:16.941Z,97536.52
2024-01-17T19:05:22.417Z,97523.09
2024-01-17T19:07:27.877Z,97522.86
2024-01-17T19:09:33.271Z,97516
2024-01-17T19:11:38.943Z,97516.12
2024-01-17T19:13:44.436Z,97516.86
2024-01-17T19:15:49.855Z,97518.05
2024-01-17T19:17:55.538Z,97516.74
2024-01-17T19:20:02.293Z,97514.65
2024-01-17T19:22:07.878Z,97516.02
2024-01-17T19:24:13.250Z,97509.66
2024-01-17T19:26:18.499Z,97512.33
2024-01-17T19:28:23.923Z,97513.81
2024-01-17T19:30:29.457Z,97501.84
2024-01-17T19:32:35.025Z,97494.94
2024-01-17T19:34:40.901Z,97484.39
2024-01-17T19:36:46.594Z,97477.16
2024-01-17T19:38:52.087Z,97472.17
2024-01-17T19:40:57.381Z,97465.31
2024-01-17T19:43:02.723Z,97456.3
2024-01-17T19:45:08.243Z,97450.63
2024-01-17T19:47:13.665Z,97443.83
2024-01-17T19:49:34.536Z,97433.39
2024-01-17T19:51:40.443Z,97447.85
2024-01-17T19:53:45.920Z,97427.27
2024-01-17T19:55:51.425Z,97424.44
2024-01-17T19:57:57.084Z,97429.43
2024-01-17T20:00:02.811Z,97427
2024-01-17T20:02:08.283Z,97421.33
2024-01-17T20:04:13.790Z,97424.84
2024-01-17T20:06:19.342Z,97422.63
2024-01-17T20:08:24.909Z,97425.45
2024-01-17T20:10:30.368Z,97416.83
2024-01-17T20:12:36.050Z,97415.61
2024-01-17T20:14:41.576Z,97398.93
2024-01-17T20:16:47.182Z,97397
2024-01-17T20:18:53.081Z,97407.78
2024-01-17T20:20:58.612Z,97403.8
2024-01-17T20:23:04.116Z,97402.22
2024-01-17T20:25:09.557Z,97391.44
2024-01-17T20:27:15.123Z,97389
2024-01-17T20:29:20.826Z,97391.73
2024-01-17T20:31:26.282Z,97365.55
2024-01-17T20:33:31.904Z,97380.51
2024-01-17T20:35:37.771Z,97382.09
2024-01-17T20:37:43.064Z,97380.45
2024-01-17T20:39:48.570Z,97384.14
2024-01-17T20:41:54.205Z,97389.75
2024-01-17T20:43:59.628Z,97385.2
2024-01-17T20:46:05.192Z,97387.3
2024-01-17T20:48:10.941Z,97386
2024-01-17T20:50:16.657Z,97379.09
2024-01-17T20:52:22.082Z,97371.31
2024-01-17T20:54:27.724Z,97362.81
2024-01-17T20:56:33.292Z,97357.55
2024-01-17T20:58:38.666Z,97357.31
2024-01-17T21:00:44.141Z,97356.01
2024-01-17T21:02:49.901Z,97355.78
2024-01-17T21:04:55.710Z,97359.69
2024-01-17T21:07:01.213Z,97345.28
2024-01-17T21:09:06.942Z,97340.88
2024-01-17T21:11:12.358Z,97342.01
2024-01-17T21:13:17.796Z,97333.05
2024-01-17T21:15:23.105Z,97327.71
2024-01-17T21:17:28.749Z,97324.75
2024-01-17T21:19:34.388Z,97330.14
2024-01-17T21:21:39.833Z,97331.04
2024-01-17T21:23:45.236Z,97331.89
2024-01-17T21:25:50.910Z,97334.3
2024-01-17T21:27:56.337Z,97336.28
2024-01-17T21:30:02.026Z,97327.66
2024-01-17T21:32:07.507Z,97321.25
2024-01-17T21:34:13.117Z,97318.87
2024-01-17T21:36:19.119Z,97319.49
2024-01-17T21:38:24.614Z,97321.7
2024-01-17T21:40:29.953Z,97311.18
2024-01-17T21:42:35.477Z,97314.02
2024-01-17T21:44:41.183Z,97303.61
2024-01-17T21:46:46.608Z,97291.37
2024-01-17T21:48:52.394Z,97282.01
2024-01-17T21:50:58.254Z,97284.51
2024-01-17T21:53:03.854Z,97286.92
2024-01-17T21:55:12.583Z,97290.84
2024-01-17T21:57:18.323Z,97287.44
2024-01-17T21:59:23.849Z,97282.56
2024-01-17T22:01:29.568Z,97279.39
2024-01-17T22:03:35.245Z,97278.81
2024-01-17T22:05:41.366Z,97270.88
2024-01-17T22:07:46.768Z,97266.57
2024-01-17T22:09:52.764Z,97270.02
2024-01-17T22:12:02.550Z,97266.34
2024-01-17T22:14:08.179Z,97269.57
2024-01-17T22:16:13.536Z,97266.73
2024-01-17T22:18:19.190Z,97269.54
2024-01-17T22:20:24.708Z,97278.73
2024-01-17T22:22:30.110Z,97279.41
2024-01-17T22:24:35.652Z,97284.17
2024-01-17T22:26:41.188Z,97288.98
2024-01-17T22:28:46.590Z,97277.88
2024-01-17T22:30:52.149Z,97266.08
2024-01-17T22:32:57.881Z,97265.34
2024-01-17T22:35:03.607Z,97259.78
2024-01-17T22:37:09.046Z,97251.11
2024-01-17T22:39:14.683Z,97255.02
2024-01-17T22:41:20.184Z,97251.38
2024-01-17T22:43:25.564Z,97261.88
2024-01-17T22:45:31.171Z,97267.44
2024-01-17T22:47:36.745Z,97271.98
2024-01-17T22:49:42.274Z,97276.86
2024-01-17T22:51:47.960Z,97275.66
2024-01-17T22:53:53.386Z,97263.06
2024-01-17T22:55:58.822Z,97269.97
2024-01-17T22:58:04.270Z,97270.09
2024-01-17T23:00:09.695Z,97268.5
2024-01-17T23:02:15.099Z,97265.2
2024-01-17T23:04:20.690Z,97261.8
2024-01-17T23:06:26.693Z,97261.8
2024-01-17T23:08:32.388Z,97261.42
2024-01-17T23:10:37.824Z,97259.16
2024-01-17T23:12:43.051Z,97259.55
2024-01-17T23:14:48.513Z,97262.56
2024-01-17T23:16:53.945Z,97263.98
2024-01-17T23:18:59.695Z,97266.98
2024-01-17T23:21:05.491Z,97263.58
2024-01-17T23:23:10.773Z,97265.51
2024-01-17T23:25:16.092Z,97260.13
2024-01-17T23:27:21.494Z,97260.05
2024-01-17T23:29:26.776Z,97265.11
2024-01-17T23:31:32.241Z,97266.47
2024-01-17T23:33:38.143Z,97273.23
2024-01-17T23:35:43.721Z,97268.34
2024-01-17T23:37:49.218Z,97270.77
2024-01-17T23:39:54.680Z,97270.73
2024-01-17T23:42:00.041Z,97271.92
2024-01-17T23:44:05.482Z,97271.63
2024-01-17T23:46:10.920Z,97266.81
2024-01-17T23:48:16.495Z,97264.34
2024-01-17T23:50:22.209Z,97280.05
2024-01-17T23:52:27.562Z,97273.67
2024-01-17T23:54:33.321Z,97270.78
2024-01-17T23:56:38.941Z,97272.92
2024-01-17T23:58:44.647Z,97273.28
